Lawrenceville, IL (62439)

7:30 PM CST on March 03, 2015 (GMT -0600)
Mount Carmel Municipal | Change Station
CLOSE
Current Station
Airport
Location: Mount Carmel,
Elevation: 430 ft
Nearby Weather Stations
Active Advisory: Winter Weather Advisory

Elev 430 ft 38.61 °N, 87.73 °W | Updated 15 minutes ago

Fog
Fog
41 °F
Feels Like 41 °F
N
0
Wind Variable Wind from North

Today
High -- | Low -- °F
--% Chance of Precip.
Yesterday
High -- | Low -- °F
Precip. -- in
6:20 AM 5:45 PM
Waxing Gibbous, 97% visible
Pressure 29.86 in
Visibility 0.5 miles
Clouds Overcast 2300 ft
Dew Point 37 °F
Humidity 87%
Rainfall 0.19 in
Snow Depth Not available.
UV 0 out of 12
Pollen .10 out of 12
Air Quality Not available.
Flu Activity Not available.
METAR KAJG 040115Z AUTO 00000KT 1/2SM RA OVC023 05/03 A2986 RMK AO2 P0001

More Conditions Fewer Conditions

Pressure 29.86 in
Visibility 0.5 miles
Clouds Overcast 2300 ft
Dew Point 37 °F
Humidity 87%
Rainfall 0.19 in
Snow Depth Not available.
UV 0 out of 12
Pollen .10 out of 12
Air Quality Not available.
Flu Activity Not available.
METAR KAJG 040115Z AUTO 00000KT 1/2SM RA OVC023 05/03 A2986 RMK AO2 P0001

More Conditions Fewer Conditions

10-Day Weather Forecast

Almanac

Astronomy

Mar. 03, 2015 Rise Set
Actual Time
Civil Twilight
Nautical Twilight
Astronomical Twilight
Moon
Length of Visible Light
Length of Day
Tomorrow will be .
, % of the Moon is Illuminated

Today's Extremes

State Highs State Lows

Community

WunderPhotos

Upload Photos

1,802,343 photos uploaded!

WunderBlogs® & News

Nearby

Air Quality

  Air Quality AQ Index Pollutant
Not available.

Snow Depth

Station Depth Elevation

Earthquake Activity

City Distance Mag. Time & Date
Minimum magnitude displayed is 2.5.

Coastal Water Temperatures

Place Temperature

Nearby Weather Stations

Winter Weather Advisory
Statement as of 7:11 PM CST on March 03, 2015

... Winter Weather Advisory remains in effect from 6 am to 6 PM
CST Wednesday...

A Winter Weather Advisory remains in effect from 6 am to 6 PM CST
Wednesday.

* Timing... light snow will develop across the area toward dawn
Wednesday... with the heaviest snow expected from late morning
through the afternoon.

* Accumulations... 2 to 5 inches are anticipated... highest near
the Indiana border.

* Impacts... roads will become snow covered and slippery starting
Wednesday morning.

Precautionary/preparedness actions...

A Winter Weather Advisory for snow means that periods of snow
will cause primarily travel difficulties. Be prepared for snow
covered roads and limited visibilities... and use caution while
driving.




Barnes